createdAt,value
2018-09-20T00:00:59.733Z,61.24
2018-09-20T00:01:59.891Z,61.22
2018-09-20T00:02:59.757Z,61.26
2018-09-20T00:04:00.241Z,61.18
2018-09-20T00:04:59.964Z,61.25
2018-09-20T00:06:00.175Z,61.22
2018-09-20T00:06:59.853Z,61.23
2018-09-20T00:08:00.096Z,61.26
2018-09-20T00:08:59.840Z,61.25
2018-09-20T00:09:59.941Z,61.28
2018-09-20T00:11:00.042Z,61.3
2018-09-20T00:12:00.329Z,61.28
2018-09-20T00:13:00.029Z,61.29
2018-09-20T00:13:59.886Z,61.31
2018-09-20T00:14:59.780Z,61.24
2018-09-20T00:15:59.817Z,61.21
2018-09-20T00:16:59.856Z,61.23
2018-09-20T00:18:00.174Z,61.25
2018-09-20T00:18:59.853Z,61.23
2018-09-20T00:19:59.878Z,61.25
2018-09-20T00:20:59.828Z,61.22
2018-09-20T00:21:59.749Z,61.19
2018-09-20T00:22:59.667Z,61.31
2018-09-20T00:24:00.619Z,61.23
2018-09-20T00:25:00.080Z,61.26
2018-09-20T00:25:59.959Z,61.27
2018-09-20T00:27:00.099Z,61.19
2018-09-20T00:27:59.842Z,61.21
2018-09-20T00:28:59.852Z,61.22
2018-09-20T00:29:59.895Z,61.26
2018-09-20T00:30:59.886Z,61.24
2018-09-20T00:32:00.048Z,61.25
2018-09-20T00:32:59.933Z,61.23
2018-09-20T00:33:59.796Z,61.23
2018-09-20T00:35:00.042Z,61.25
2018-09-20T00:36:00.023Z,61.24
2018-09-20T00:36:59.737Z,61.24
2018-09-20T00:37:59.977Z,61.29
2018-09-20T00:39:00.083Z,61.26
2018-09-20T00:39:59.798Z,61.23
2018-09-20T00:40:59.958Z,61.28
2018-09-20T00:41:59.756Z,61.26
2018-09-20T00:43:00.195Z,61.25
2018-09-20T00:43:59.770Z,61.25
2018-09-20T00:44:59.875Z,61.24
2018-09-20T00:45:59.768Z,61.18
2018-09-20T00:46:59.859Z,61.28
2018-09-20T00:47:59.699Z,61.25
2018-09-20T00:48:59.705Z,61.18
2018-09-20T00:49:59.969Z,61.29
2018-09-20T00:51:00.336Z,61.19
2018-09-20T00:51:59.811Z,61.2
2018-09-20T00:52:59.901Z,61.26
2018-09-20T00:54:00.710Z,61.25
2018-09-20T00:55:00.298Z,61.2
2018-09-20T00:56:00.174Z,61.21
2018-09-20T00:56:59.786Z,61.23
2018-09-20T00:57:59.785Z,61.21
2018-09-20T00:58:59.814Z,61.26
2018-09-20T01:00:00.193Z,61.25
2018-09-20T01:00:59.783Z,61.23
2018-09-20T01:02:00.281Z,61.2
2018-09-20T01:02:59.798Z,61.19
2018-09-20T01:04:00.268Z,61.21
2018-09-20T01:05:00.105Z,61.23
2018-09-20T01:05:59.704Z,61.2
2018-09-20T01:07:00.092Z,61.19
2018-09-20T01:07:59.884Z,61.24
2018-09-20T01:08:59.817Z,61.19
2018-09-20T01:09:59.684Z,61.23
2018-09-20T01:10:59.875Z,61.28
2018-09-20T01:11:59.823Z,61.3
2018-09-20T01:12:59.787Z,61.24
2018-09-20T01:13:59.910Z,61.27
2018-09-20T01:15:00.028Z,61.27
2018-09-20T01:15:59.880Z,61.24
2018-09-20T01:16:59.858Z,61.32
2018-09-20T01:17:59.982Z,61.28
2018-09-20T01:18:59.795Z,61.25
2018-09-20T01:19:59.908Z,61.26
2018-09-20T01:20:59.738Z,61.24
2018-09-20T01:21:59.868Z,61.24
2018-09-20T01:22:59.767Z,61.32
2018-09-20T01:23:59.736Z,61.28
2018-09-20T01:24:59.865Z,61.24
2018-09-20T01:25:59.805Z,61.26
2018-09-20T01:26:59.827Z,61.3
2018-09-20T01:27:59.776Z,61.24
2018-09-20T01:28:59.933Z,61.29
2018-09-20T01:30:00.050Z,61.28
2018-09-20T01:30:59.723Z,61.26
2018-09-20T01:31:59.917Z,61.31
2018-09-20T01:32:59.819Z,61.25
2018-09-20T01:34:00.195Z,61.23
2018-09-20T01:34:59.750Z,61.32
2018-09-20T01:35:59.781Z,61.29
2018-09-20T01:36:59.661Z,61.26
2018-09-20T01:37:59.993Z,61.32
2018-09-20T01:38:59.721Z,61.28
2018-09-20T01:39:59.694Z,61.25
2018-09-20T01:40:59.867Z,61.32
2018-09-20T01:41:59.765Z,61.28
2018-09-20T01:42:59.786Z,61.23
2018-09-20T01:43:59.730Z,61.34
2018-09-20T01:44:59.843Z,61.26
2018-09-20T01:45:59.850Z,61.3
2018-09-20T01:46:59.853Z,61.34
2018-09-20T01:48:00.006Z,61.28
2018-09-20T01:48:59.783Z,61.29
2018-09-20T01:49:59.873Z,61.33
2018-09-20T01:50:59.707Z,61.32
2018-09-20T01:51:59.979Z,61.24
2018-09-20T01:53:00.035Z,61.32
2018-09-20T01:54:00.079Z,61.28
2018-09-20T01:54:59.816Z,61.25
2018-09-20T01:55:59.949Z,61.32
2018-09-20T01:57:00.034Z,61.29
2018-09-20T01:57:59.913Z,61.26
2018-09-20T01:58:59.904Z,61.27
2018-09-20T01:59:59.987Z,61.29
2018-09-20T02:00:59.952Z,61.24
2018-09-20T02:01:59.959Z,61.26
2018-09-20T02:02:59.760Z,61.29
2018-09-20T02:03:59.949Z,61.26
2018-09-20T02:04:59.968Z,61.34
2018-09-20T02:05:59.721Z,61.26
2018-09-20T02:06:59.872Z,61.23
2018-09-20T02:07:59.819Z,61.29
2018-09-20T02:08:59.798Z,61.28
2018-09-20T02:10:00.261Z,61.25
2018-09-20T02:10:59.677Z,61.31
2018-09-20T02:11:59.923Z,61.26
2018-09-20T02:12:59.910Z,61.3
2018-09-20T02:13:59.845Z,61.3
2018-09-20T02:14:59.975Z,61.27
2018-09-20T02:15:59.651Z,61.26
2018-09-20T02:16:59.892Z,61.28
2018-09-20T02:17:59.817Z,61.26
2018-09-20T02:18:59.688Z,61.26
2018-09-20T02:19:59.694Z,61.35
2018-09-20T02:20:59.833Z,61.26
2018-09-20T02:21:59.727Z,61.28
2018-09-20T02:22:59.778Z,61.33
2018-09-20T02:24:00.139Z,61.31
2018-09-20T02:24:59.824Z,61.29
2018-09-20T02:25:59.764Z,61.32
2018-09-20T02:27:00.046Z,61.26
2018-09-20T02:27:59.883Z,61.24
2018-09-20T02:28:59.687Z,61.28
2018-09-20T02:29:59.769Z,61.26
2018-09-20T02:30:59.990Z,61.29
2018-09-20T02:31:59.705Z,61.3
2018-09-20T02:32:59.828Z,61.3
2018-09-20T02:33:59.939Z,61.25
2018-09-20T02:34:59.865Z,61.34
2018-09-20T02:35:59.746Z,61.29
2018-09-20T02:36:59.775Z,61.24
2018-09-20T02:37:59.737Z,61.28
2018-09-20T02:38:59.897Z,61.23
2018-09-20T02:39:59.969Z,61.24
2018-09-20T02:40:59.772Z,61.33
2018-09-20T02:41:59.843Z,61.26
2018-09-20T02:42:59.759Z,61.21
2018-09-20T02:43:59.749Z,61.26
2018-09-20T02:44:59.782Z,61.24
2018-09-20T02:46:00.093Z,61.21
2018-09-20T02:46:59.798Z,61.22
2018-09-20T02:47:59.802Z,61.26
2018-09-20T02:48:59.903Z,61.26
2018-09-20T02:49:59.845Z,61.3
2018-09-20T02:50:59.807Z,61.26
2018-09-20T02:51:59.860Z,61.3
2018-09-20T02:52:59.744Z,61.34
2018-09-20T02:54:00.271Z,61.3
2018-09-20T02:54:59.791Z,61.26
2018-09-20T02:55:59.807Z,61.21
2018-09-20T02:56:59.741Z,61.23
2018-09-20T02:57:59.851Z,61.21
2018-09-20T02:59:01.146Z,61.28
2018-09-20T02:59:59.805Z,61.28
2018-09-20T03:00:59.858Z,61.16
2018-09-20T03:01:59.682Z,61.21
2018-09-20T03:03:00.066Z,61.23
2018-09-20T03:03:59.847Z,61.24
2018-09-20T03:04:59.927Z,61.22
2018-09-20T03:05:59.908Z,61.23
2018-09-20T03:06:59.788Z,61.22
2018-09-20T03:07:59.782Z,61.19
2018-09-20T03:08:59.871Z,61.21
2018-09-20T03:09:59.807Z,61.2
2018-09-20T03:10:59.820Z,61.24
2018-09-20T03:12:00.047Z,61.22
2018-09-20T03:12:59.696Z,61.3
2018-09-20T03:14:00.125Z,61.26
2018-09-20T03:14:59.774Z,61.24
2018-09-20T03:16:00.121Z,61.18
2018-09-20T03:16:59.677Z,61.24
2018-09-20T03:17:59.883Z,61.22
2018-09-20T03:18:59.857Z,61.16
2018-09-20T03:20:00.033Z,61.25
2018-09-20T03:20:59.856Z,61.2
2018-09-20T03:21:59.643Z,61.22
2018-09-20T03:22:59.940Z,61.29
2018-09-20T03:23:59.914Z,61.26
2018-09-20T03:24:59.853Z,61.21
2018-09-20T03:26:00.037Z,61.3
2018-09-20T03:26:59.929Z,61.3
2018-09-20T03:27:59.749Z,61.25
2018-09-20T03:28:59.617Z,61.23
2018-09-20T03:29:59.970Z,61.18
2018-09-20T03:30:59.885Z,61.25
2018-09-20T03:32:00.042Z,61.29
2018-09-20T03:32:59.773Z,61.23
2018-09-20T03:33:59.816Z,61.2
2018-09-20T03:35:00.114Z,61.27
2018-09-20T03:35:59.858Z,61.24
2018-09-20T03:36:59.855Z,61.21
2018-09-20T03:37:59.874Z,61.24
2018-09-20T03:39:00.067Z,61.25
2018-09-20T03:39:59.753Z,61.2
2018-09-20T03:40:59.895Z,61.24
2018-09-20T03:41:59.911Z,61.23
2018-09-20T03:43:00.141Z,61.27
2018-09-20T03:43:59.818Z,61.28
2018-09-20T03:44:59.912Z,61.21
2018-09-20T03:45:59.842Z,61.22
2018-09-20T03:46:59.801Z,61.23
2018-09-20T03:47:59.697Z,61.18
2018-09-20T03:48:59.999Z,61.2
2018-09-20T03:49:59.839Z,61.28
2018-09-20T03:50:59.939Z,61.28
2018-09-20T03:51:59.837Z,61.2
2018-09-20T03:52:59.835Z,61.23
2018-09-20T03:53:59.747Z,61.23
2018-09-20T03:54:59.745Z,61.23
2018-09-20T03:55:59.704Z,61.27
2018-09-20T03:56:59.797Z,61.27
2018-09-20T03:57:59.847Z,61.16
2018-09-20T03:58:59.724Z,61.21
2018-09-20T03:59:59.763Z,61.22
2018-09-20T04:00:59.852Z,61.21
2018-09-20T04:01:59.744Z,61.26
2018-09-20T04:02:59.865Z,61.26
2018-09-20T04:03:59.861Z,61.26
2018-09-20T04:04:59.843Z,61.3
2018-09-20T04:05:59.788Z,61.26
2018-09-20T04:07:00.014Z,61.24
2018-09-20T04:07:59.766Z,61.28
2018-09-20T04:08:59.916Z,61.23
2018-09-20T04:09:59.964Z,61.19
2018-09-20T04:10:59.842Z,61.3
2018-09-20T04:12:00.140Z,61.25
2018-09-20T04:12:59.811Z,61.18
2018-09-20T04:13:59.780Z,61.24
2018-09-20T04:15:00.061Z,61.21
2018-09-20T04:16:00.005Z,61.18
2018-09-20T04:16:59.916Z,61.27
2018-09-20T04:18:00.039Z,61.23
2018-09-20T04:19:00.171Z,61.18
2018-09-20T04:19:59.822Z,61.23
2018-09-20T04:20:59.933Z,61.24
2018-09-20T04:21:59.815Z,61.19
2018-09-20T04:22:59.943Z,61.21
2018-09-20T04:23:59.837Z,61.19
2018-09-20T04:24:59.783Z,61.23
2018-09-20T04:25:59.864Z,61.24
2018-09-20T04:26:59.899Z,61.17
2018-09-20T04:27:59.738Z,61.21
2018-09-20T04:28:59.789Z,61.19
2018-09-20T04:30:00.031Z,61.23
2018-09-20T04:31:00.030Z,61.24
2018-09-20T04:31:59.852Z,61.24
2018-09-20T04:32:59.915Z,61.21
2018-09-20T04:33:59.801Z,61.21
2018-09-20T04:34:59.871Z,61.26
2018-09-20T04:35:59.922Z,61.26
2018-09-20T04:36:59.817Z,61.24
2018-09-20T04:37:59.767Z,61.26
2018-09-20T04:38:59.810Z,61.28
2018-09-20T04:39:59.848Z,61.25
2018-09-20T04:40:59.764Z,61.32
2018-09-20T04:41:59.751Z,61.29
2018-09-20T04:42:59.808Z,61.27
2018-09-20T04:44:00.043Z,61.26
2018-09-20T04:44:59.692Z,61.23
2018-09-20T04:46:00.097Z,61.21
2018-09-20T04:46:59.920Z,61.23
2018-09-20T04:48:00.056Z,61.23
2018-09-20T04:48:59.967Z,61.21
2018-09-20T04:50:00.268Z,61.29
2018-09-20T04:50:59.767Z,61.27
2018-09-20T04:51:59.786Z,61.26
2018-09-20T04:53:00.767Z,61.31
2018-09-20T04:53:59.971Z,61.28
2018-09-20T04:54:59.849Z,61.3
2018-09-20T04:55:59.607Z,61.4
2018-09-20T04:56:59.705Z,61.38
2018-09-20T04:58:00.028Z,61.26
2018-09-20T04:58:59.787Z,61.31
2018-09-20T05:00:00.653Z,61.4
2018-09-20T05:00:59.817Z,61.37
2018-09-20T05:01:59.792Z,61.37
2018-09-20T05:02:59.772Z,61.33
2018-09-20T05:03:59.808Z,61.33
2018-09-20T05:04:59.881Z,61.34
2018-09-20T05:05:59.818Z,61.33
2018-09-20T05:06:59.857Z,61.32
2018-09-20T05:07:59.804Z,61.42
2018-09-20T05:08:59.658Z,61.38
2018-09-20T05:10:00.100Z,61.34
2018-09-20T05:10:59.759Z,61.37
2018-09-20T05:11:59.803Z,61.38
2018-09-20T05:12:59.669Z,61.41
2018-09-20T05:13:59.807Z,61.42
2018-09-20T05:14:59.775Z,61.47
2018-09-20T05:15:59.814Z,61.45
2018-09-20T05:16:59.889Z,61.41
2018-09-20T05:17:59.711Z,61.41
2018-09-20T05:18:59.710Z,61.33
2018-09-20T05:19:59.670Z,61.37
2018-09-20T05:20:59.851Z,61.35
2018-09-20T05:21:59.578Z,61.29
2018-09-20T05:22:59.796Z,61.34
2018-09-20T05:23:59.669Z,61.36
2018-09-20T05:24:59.800Z,61.3
2018-09-20T05:25:59.749Z,61.35
2018-09-20T05:26:59.742Z,61.29
2018-09-20T05:27:59.700Z,61.32
2018-09-20T05:28:59.662Z,61.33
2018-09-20T05:29:59.734Z,61.32
2018-09-20T05:30:59.693Z,61.34
2018-09-20T05:31:59.573Z,61.32
2018-09-20T05:32:59.878Z,61.32
2018-09-20T05:33:59.672Z,61.27
2018-09-20T05:35:00.076Z,61.31
2018-09-20T05:35:59.627Z,61.24
2018-09-20T05:36:59.728Z,61.22
2018-09-20T05:37:59.762Z,61.34
2018-09-20T05:39:00.137Z,61.32
2018-09-20T05:40:00.002Z,61.33
2018-09-20T05:41:00.238Z,61.36
2018-09-20T05:41:59.772Z,61.36
2018-09-20T05:42:59.834Z,61.28
2018-09-20T05:43:59.712Z,61.29
2018-09-20T05:44:59.751Z,61.32
2018-09-20T05:45:59.710Z,61.33
2018-09-20T05:46:59.785Z,61.31
2018-09-20T05:47:59.849Z,61.29
2018-09-20T05:48:59.779Z,61.3
2018-09-20T05:49:59.654Z,61.31
2018-09-20T05:50:59.880Z,61.28
2018-09-20T05:51:59.896Z,61.29
2018-09-20T05:52:59.878Z,61.24
2018-09-20T05:53:59.547Z,61.32
2018-09-20T05:54:59.979Z,61.36
2018-09-20T05:55:59.716Z,61.31
2018-09-20T05:56:59.569Z,61.25
2018-09-20T05:57:59.651Z,61.22
2018-09-20T05:59:00.020Z,61.28
2018-09-20T05:59:59.838Z,61.38
2018-09-20T06:00:59.568Z,61.35
2018-09-20T06:01:59.789Z,61.34
2018-09-20T06:02:59.908Z,61.44
2018-09-20T06:03:59.945Z,61.41
2018-09-20T06:04:59.996Z,61.36
2018-09-20T06:06:01.162Z,61.39
2018-09-20T06:06:59.891Z,61.33
2018-09-20T06:07:59.754Z,61.34
2018-09-20T06:08:59.814Z,61.34
2018-09-20T06:09:59.923Z,61.41
2018-09-20T06:10:59.750Z,61.34
2018-09-20T06:11:59.818Z,61.34
2018-09-20T06:12:59.700Z,61.29
2018-09-20T06:13:59.777Z,61.34
2018-09-20T06:14:59.947Z,61.45
2018-09-20T06:15:59.817Z,61.86
2018-09-20T06:16:59.889Z,62.33
2018-09-20T06:17:59.863Z,62.69
2018-09-20T06:18:59.853Z,62.82
2018-09-20T06:19:59.807Z,62.91
2018-09-20T06:20:59.870Z,63.04
2018-09-20T06:21:59.873Z,63.25
2018-09-20T06:22:59.730Z,63.19
2018-09-20T06:23:59.582Z,63.33
2018-09-20T06:24:59.929Z,63.15
2018-09-20T06:25:59.720Z,63.06
2018-09-20T06:26:59.760Z,63.06
2018-09-20T06:28:00.069Z,62.88
2018-09-20T06:28:59.595Z,62.81
2018-09-20T06:29:59.691Z,62.92
2018-09-20T06:30:59.882Z,62.67
2018-09-20T06:31:59.714Z,62.78
2018-09-20T06:32:59.715Z,62.62
2018-09-20T06:33:59.749Z,62.66
2018-09-20T06:35:00.653Z,62.51
2018-09-20T06:35:59.918Z,62.5
2018-09-20T06:37:01.055Z,62.46
2018-09-20T06:37:59.775Z,62.37
2018-09-20T06:38:59.671Z,62.47
2018-09-20T06:39:59.767Z,62.36
2018-09-20T06:41:00.900Z,62.37
2018-09-20T06:41:59.758Z,62.34
2018-09-20T06:42:59.604Z,62.28
2018-09-20T06:43:59.771Z,62.61
2018-09-20T06:44:59.576Z,62.39
2018-09-20T06:45:59.679Z,62.46
2018-09-20T06:46:59.712Z,62.4
2018-09-20T06:47:59.599Z,62.45
2018-09-20T06:48:59.612Z,62.4
2018-09-20T06:49:59.971Z,62.44
2018-09-20T06:50:59.663Z,62.55
2018-09-20T06:51:59.722Z,62.49
2018-09-20T06:52:59.792Z,62.39
2018-09-20T06:53:59.803Z,62.43
2018-09-20T06:54:59.565Z,62.35
2018-09-20T06:55:59.688Z,62.37
2018-09-20T06:57:00.187Z,62.5
2018-09-20T06:57:59.758Z,62.51
2018-09-20T06:58:59.541Z,62.53
2018-09-20T06:59:59.537Z,62.48
2018-09-20T07:00:59.814Z,62.42
2018-09-20T07:01:59.715Z,62.42
2018-09-20T07:03:00.947Z,62.51
2018-09-20T07:03:59.750Z,62.45
2018-09-20T07:04:59.911Z,62.43
2018-09-20T07:05:59.677Z,62.4
2018-09-20T07:06:59.936Z,62.33
2018-09-20T07:07:59.775Z,62.33
2018-09-20T07:08:59.594Z,62.32
2018-09-20T07:09:59.813Z,62.25
2018-09-20T07:10:59.788Z,62.28
2018-09-20T07:11:59.888Z,62.31
2018-09-20T07:12:59.777Z,62.27
2018-09-20T07:13:59.747Z,62.2
2018-09-20T07:14:59.777Z,62.16
2018-09-20T07:16:00.077Z,62.1
2018-09-20T07:16:59.767Z,62.1
2018-09-20T07:17:59.552Z,62.11
2018-09-20T07:19:00.380Z,62.03
2018-09-20T07:19:59.752Z,61.98
2018-09-20T07:20:59.653Z,62.02
2018-09-20T07:21:59.692Z,62.02
2018-09-20T07:22:59.966Z,62.01
2018-09-20T07:24:00.230Z,62
2018-09-20T07:25:00.251Z,61.93
2018-09-20T07:25:59.690Z,61.93
2018-09-20T07:26:59.753Z,61.92
2018-09-20T07:28:00.014Z,61.86
2018-09-20T07:29:00.180Z,61.83
2018-09-20T07:29:59.767Z,61.82
2018-09-20T07:30:59.781Z,61.82
2018-09-20T07:31:59.562Z,61.88
2018-09-20T07:32:59.881Z,61.87
2018-09-20T07:33:59.740Z,61.81
2018-09-20T07:34:59.725Z,61.97
2018-09-20T07:35:59.714Z,62.02
2018-09-20T07:37:00.025Z,62
2018-09-20T07:37:59.712Z,61.99
2018-09-20T07:38:59.666Z,61.99
2018-09-20T07:39:59.639Z,61.97
2018-09-20T07:40:59.540Z,62.03
2018-09-20T07:41:59.738Z,62.16
2018-09-20T07:42:59.612Z,62.1
2018-09-20T07:43:59.574Z,62.13
2018-09-20T07:44:59.700Z,62.08
2018-09-20T07:45:59.622Z,62.13
2018-09-20T07:46:59.548Z,62.32
2018-09-20T07:47:59.786Z,62.31
2018-09-20T07:48:59.902Z,62.28
2018-09-20T07:49:59.816Z,62.32
2018-09-20T07:50:59.911Z,62.5
2018-09-20T07:51:59.848Z,62.38
2018-09-20T07:52:59.713Z,62.35
2018-09-20T07:53:59.550Z,62.36
2018-09-20T07:54:59.800Z,62.52
2018-09-20T07:55:59.747Z,62.35
2018-09-20T07:56:59.643Z,62.39
2018-09-20T07:57:59.601Z,62.42
2018-09-20T07:58:59.875Z,62.41
2018-09-20T07:59:59.902Z,62.62
2018-09-20T08:00:59.799Z,62.49
2018-09-20T08:02:01.326Z,62.53
2018-09-20T08:02:59.593Z,62.28
2018-09-20T08:03:59.984Z,62.27
2018-09-20T08:04:59.708Z,62.34
2018-09-20T08:06:00.051Z,62.49
2018-09-20T08:07:00.668Z,62.4
2018-09-20T08:07:59.772Z,62.57
2018-09-20T08:08:59.474Z,62.62
2018-09-20T08:09:59.840Z,62.37
2018-09-20T08:10:59.536Z,62.47
2018-09-20T08:11:59.902Z,62.51
2018-09-20T08:13:01.550Z,62.49
2018-09-20T08:14:00.033Z,62.57
2018-09-20T08:14:59.591Z,62.49
2018-09-20T08:15:59.876Z,62.4
2018-09-20T08:16:59.550Z,62.4
2018-09-20T08:17:59.799Z,62.39
2018-09-20T08:18:59.661Z,62.33
2018-09-20T08:19:59.730Z,62.32
2018-09-20T08:20:59.622Z,62.05
2018-09-20T08:21:59.817Z,62.08
2018-09-20T08:22:59.693Z,62.28
2018-09-20T08:23:59.990Z,62.24
2018-09-20T08:24:59.958Z,62.28
2018-09-20T08:25:59.659Z,62.33
2018-09-20T08:26:59.656Z,62.31
2018-09-20T08:27:59.586Z,62.2
2018-09-20T08:28:59.832Z,62.34
2018-09-20T08:30:00.014Z,62.25
2018-09-20T08:30:59.970Z,62.13
2018-09-20T08:31:59.825Z,62.2
2018-09-20T08:32:59.673Z,62.24
2018-09-20T08:33:59.721Z,62.24
2018-09-20T08:34:59.591Z,62.23
2018-09-20T08:35:59.754Z,62.15
2018-09-20T08:37:00.845Z,62.1
2018-09-20T08:37:59.876Z,62.13
2018-09-20T08:38:59.742Z,61.98
2018-09-20T08:39:59.867Z,61.92
2018-09-20T08:40:59.492Z,61.82
2018-09-20T08:41:59.661Z,61.95
2018-09-20T08:42:59.500Z,61.94
2018-09-20T08:43:59.938Z,62.01
2018-09-20T08:44:59.833Z,62
2018-09-20T08:45:59.880Z,61.81
2018-09-20T08:46:59.729Z,61.93
2018-09-20T08:47:59.663Z,61.97
2018-09-20T08:48:59.674Z,61.79
2018-09-20T08:49:59.850Z,61.88
2018-09-20T08:51:00.608Z,61.93
2018-09-20T08:51:59.680Z,61.84
2018-09-20T08:52:59.739Z,61.93
2018-09-20T08:53:59.533Z,61.75
2018-09-20T08:54:59.595Z,61.91
2018-09-20T08:55:59.766Z,62.01
2018-09-20T08:57:01.018Z,61.88
2018-09-20T08:57:59.779Z,61.97
2018-09-20T08:58:59.519Z,62.07
2018-09-20T08:59:59.503Z,62.17
2018-09-20T09:00:59.640Z,62.04
2018-09-20T09:01:59.587Z,62.15
2018-09-20T09:02:59.823Z,62.24
2018-09-20T09:03:59.643Z,62.17
2018-09-20T09:04:59.658Z,62.13
2018-09-20T09:05:59.649Z,62.06
2018-09-20T09:06:59.755Z,62.06
2018-09-20T09:07:59.663Z,62.09
2018-09-20T09:08:59.510Z,62.09
2018-09-20T09:10:00.097Z,62.06
2018-09-20T09:10:59.879Z,62.02
2018-09-20T09:12:00.937Z,62.04
2018-09-20T09:13:00.146Z,62.07
2018-09-20T09:13:59.816Z,61.99
2018-09-20T09:14:59.795Z,62.01
2018-09-20T09:15:59.507Z,61.93
2018-09-20T09:16:59.580Z,62
2018-09-20T09:17:59.588Z,61.86
2018-09-20T09:18:59.787Z,61.82
2018-09-20T09:19:59.711Z,61.96
2018-09-20T09:20:59.748Z,62.03
2018-09-20T09:22:00.003Z,61.95
2018-09-20T09:22:59.538Z,61.91
2018-09-20T09:24:00.089Z,62.02
2018-09-20T09:24:59.872Z,61.99
2018-09-20T09:25:59.786Z,61.94
2018-09-20T09:26:59.713Z,61.99
2018-09-20T09:27:59.548Z,61.98
2018-09-20T09:28:59.820Z,62.05
2018-09-20T09:29:59.753Z,62.05
2018-09-20T09:31:00.025Z,62.06
2018-09-20T09:31:59.534Z,62.09
2018-09-20T09:32:59.620Z,62.1
2018-09-20T09:34:00.239Z,62.01
2018-09-20T09:34:59.716Z,61.97
2018-09-20T09:35:59.741Z,61.72
2018-09-20T09:36:59.867Z,61.91
2018-09-20T09:37:59.874Z,61.86
2018-09-20T09:38:59.567Z,61.92
2018-09-20T09:39:59.771Z,61.9
2018-09-20T09:40:59.820Z,61.92
2018-09-20T09:41:59.873Z,61.92
2018-09-20T09:42:59.469Z,61.95
2018-09-20T09:44:00.008Z,61.9
2018-09-20T09:45:00.044Z,61.95
2018-09-20T09:45:59.841Z,62
2018-09-20T09:46:59.623Z,61.97
2018-09-20T09:48:00.536Z,61.97
2018-09-20T09:48:59.703Z,61.89
2018-09-20T09:49:59.651Z,61.88
2018-09-20T09:50:59.837Z,61.85
2018-09-20T09:52:00.016Z,61.77
2018-09-20T09:52:59.801Z,61.79
2018-09-20T09:53:59.775Z,61.87
2018-09-20T09:54:59.517Z,61.8
2018-09-20T09:55:59.495Z,61.81
2018-09-20T09:56:59.774Z,61.75
2018-09-20T09:57:59.748Z,61.78
2018-09-20T09:58:59.846Z,61.81
2018-09-20T09:59:59.948Z,61.86
2018-09-20T10:00:59.748Z,61.79
2018-09-20T10:01:59.536Z,61.83
2018-09-20T10:03:00.171Z,61.64
2018-09-20T10:04:00.132Z,61.84
2018-09-20T10:04:59.855Z,61.82
2018-09-20T10:05:59.638Z,61.86
2018-09-20T10:07:01.018Z,61.9
2018-09-20T10:08:00.110Z,61.84
2018-09-20T10:09:00.011Z,61.87
2018-09-20T10:09:59.878Z,61.92
2018-09-20T10:10:59.508Z,61.89
2018-09-20T10:11:59.595Z,61.89
2018-09-20T10:12:59.766Z,61.84
2018-09-20T10:13:59.834Z,61.81
2018-09-20T10:14:59.859Z,61.83
2018-09-20T10:15:59.773Z,61.85
2018-09-20T10:16:59.812Z,61.78
2018-09-20T10:17:59.585Z,61.81
2018-09-20T10:18:59.614Z,61.81
2018-09-20T10:20:00.503Z,61.84
2018-09-20T10:20:59.480Z,61.81
2018-09-20T10:21:59.543Z,61.82
2018-09-20T10:22:59.587Z,61.82
2018-09-20T10:24:00.487Z,61.85
2018-09-20T10:24:59.618Z,61.87
2018-09-20T10:25:59.539Z,61.91
2018-09-20T10:26:59.662Z,61.88
2018-09-20T10:28:00.319Z,61.86
2018-09-20T10:28:59.807Z,61.81
2018-09-20T10:29:59.710Z,61.83
2018-09-20T10:30:59.720Z,61.83
2018-09-20T10:31:59.772Z,61.79
2018-09-20T10:32:59.791Z,61.77
2018-09-20T10:34:01.004Z,61.79
2018-09-20T10:34:59.721Z,61.73
2018-09-20T10:35:59.610Z,61.78
2018-09-20T10:36:59.792Z,61.73
2018-09-20T10:37:59.901Z,61.73
2018-09-20T10:38:59.866Z,61.71
2018-09-20T10:39:59.719Z,61.73
2018-09-20T10:40:59.658Z,61.73
2018-09-20T10:41:59.530Z,61.75
2018-09-20T10:42:59.834Z,61.7
2018-09-20T10:43:59.826Z,61.71
2018-09-20T10:44:59.597Z,61.7
2018-09-20T10:45:59.868Z,61.69
2018-09-20T10:46:59.918Z,61.65
2018-09-20T10:47:59.492Z,61.63
2018-09-20T10:48:59.484Z,61.59
2018-09-20T10:49:59.724Z,61.55
2018-09-20T10:51:00.277Z,61.58
2018-09-20T10:51:59.625Z,61.59
2018-09-20T10:52:59.573Z,61.58
2018-09-20T10:54:00.011Z,61.58
2018-09-20T10:54:59.646Z,61.54
2018-09-20T10:55:59.539Z,61.5
2018-09-20T10:56:59.949Z,61.51
2018-09-20T10:57:59.760Z,61.49
2018-09-20T10:58:59.636Z,61.52
2018-09-20T10:59:59.845Z,61.52
2018-09-20T11:00:59.955Z,61.51
2018-09-20T11:01:59.807Z,61.5
2018-09-20T11:03:01.058Z,61.42
2018-09-20T11:03:59.483Z,61.45
2018-09-20T11:04:59.988Z,61.48
2018-09-20T11:05:59.919Z,61.43
2018-09-20T11:06:59.740Z,61.42
2018-09-20T11:07:59.735Z,61.45
2018-09-20T11:08:59.831Z,61.41
2018-09-20T11:09:59.829Z,61.39
2018-09-20T11:11:01.174Z,61.41
2018-09-20T11:11:59.629Z,61.42
2018-09-20T11:12:59.577Z,61.41
2018-09-20T11:13:59.802Z,61.43
2018-09-20T11:14:59.864Z,61.39
2018-09-20T11:16:00.021Z,61.42
2018-09-20T11:16:59.879Z,61.42
2018-09-20T11:17:59.757Z,61.42
2018-09-20T11:18:59.786Z,61.39
2018-09-20T11:19:59.439Z,61.42
2018-09-20T11:20:59.542Z,61.42
2018-09-20T11:21:59.553Z,61.41
2018-09-20T11:22:59.821Z,61.43
2018-09-20T11:23:59.923Z,61.39
2018-09-20T11:24:59.415Z,61.38
2018-09-20T11:26:01.725Z,61.37
2018-09-20T11:26:59.938Z,61.33
2018-09-20T11:27:59.604Z,61.38
2018-09-20T11:28:59.740Z,61.37
2018-09-20T11:29:59.630Z,61.36
2018-09-20T11:30:59.979Z,61.39
2018-09-20T11:31:59.477Z,61.45
2018-09-20T11:32:59.520Z,61.44
2018-09-20T11:33:59.482Z,61.45
2018-09-20T11:34:59.808Z,61.43
2018-09-20T11:35:59.914Z,61.43
2018-09-20T11:36:59.596Z,61.44
2018-09-20T11:37:59.719Z,61.45
2018-09-20T11:38:59.548Z,61.44
2018-09-20T11:39:59.612Z,61.41
2018-09-20T11:40:59.450Z,61.43
2018-09-20T11:41:59.505Z,61.41
2018-09-20T11:42:59.753Z,61.45
2018-09-20T11:43:59.831Z,61.43
2018-09-20T11:44:59.731Z,61.43
2018-09-20T11:45:59.534Z,61.42
2018-09-20T11:46:59.527Z,61.49
2018-09-20T11:47:59.405Z,61.6
2018-09-20T11:48:59.712Z,61.56
2018-09-20T11:49:59.639Z,61.53
2018-09-20T11:50:59.588Z,61.5
2018-09-20T11:51:59.495Z,61.47
2018-09-20T11:52:59.559Z,61.48
2018-09-20T11:53:59.512Z,61.6
2018-09-20T11:54:59.550Z,61.78
2018-09-20T11:55:59.724Z,61.79
2018-09-20T11:56:59.616Z,61.74
2018-09-20T11:57:59.609Z,61.78
2018-09-20T11:58:59.647Z,61.72
2018-09-20T11:59:59.796Z,61.72
2018-09-20T12:01:00.111Z,61.71
2018-09-20T12:02:01.127Z,61.66
2018-09-20T12:02:59.677Z,61.74
2018-09-20T12:03:59.539Z,61.64
2018-09-20T12:04:59.826Z,61.66
2018-09-20T12:05:59.622Z,61.63
2018-09-20T12:06:59.606Z,61.63
2018-09-20T12:07:59.507Z,61.64
2018-09-20T12:08:59.668Z,61.7
2018-09-20T12:10:00.270Z,61.71
2018-09-20T12:10:59.884Z,61.7
2018-09-20T12:11:59.551Z,61.7
2018-09-20T12:13:00.027Z,61.62
2018-09-20T12:13:59.623Z,61.65
2018-09-20T12:14:59.629Z,61.66
2018-09-20T12:15:59.771Z,61.66
2018-09-20T12:16:59.553Z,61.73
2018-09-20T12:17:59.779Z,61.72
2018-09-20T12:18:59.365Z,61.7
2018-09-20T12:20:00.866Z,61.71
2018-09-20T12:20:59.801Z,61.72
2018-09-20T12:21:59.429Z,61.67
2018-09-20T12:22:59.910Z,61.62
2018-09-20T12:23:59.612Z,61.62
2018-09-20T12:24:59.828Z,61.64
2018-09-20T12:26:01.028Z,61.69
2018-09-20T12:26:59.757Z,61.67
2018-09-20T12:27:59.850Z,61.63
2018-09-20T12:28:59.891Z,61.77
2018-09-20T12:29:59.770Z,61.71
2018-09-20T12:30:59.870Z,61.7
2018-09-20T12:32:00.908Z,61.67
2018-09-20T12:32:59.742Z,61.75
2018-09-20T12:33:59.894Z,61.69
2018-09-20T12:34:59.738Z,61.76
2018-09-20T12:36:00.727Z,61.74
2018-09-20T12:36:59.451Z,61.7
2018-09-20T12:38:00.178Z,61.67
2018-09-20T12:38:59.566Z,61.72
2018-09-20T12:39:59.744Z,61.62
2018-09-20T12:40:59.632Z,61.69
2018-09-20T12:41:59.455Z,61.79
2018-09-20T12:43:01.911Z,61.78
2018-09-20T12:43:59.440Z,61.77
2018-09-20T12:44:59.618Z,61.74
2018-09-20T12:45:59.769Z,61.75
2018-09-20T12:46:59.863Z,61.74
2018-09-20T12:47:59.754Z,61.72
2018-09-20T12:48:59.702Z,61.78
2018-09-20T12:49:59.535Z,61.76
2018-09-20T12:50:59.816Z,61.79
2018-09-20T13:19:13.426Z,62.95
2018-09-20T13:20:14.413Z,62.33
2018-09-20T13:21:13.571Z,62.22
2018-09-20T13:22:13.680Z,62.05
2018-09-20T13:23:14.009Z,62.01